• Join FlightAware (Why Join?)
  • Login
  • US Flag 
06:17AM EDT


 

Airport Tracker/Info


-or-


 

Live Flight TrackerFlight Track Log ✈ UAL495 ✈ 17-Apr-2013 ✈ KDEN - KIAD

Flight Track Log - Related Links

Times and Time Zones

All times are in EDT time to prevent confusion due to time zone crossing. See the UAL495 flight status page for this flight to view local times or setup timezone preferences in your user account.

Time Position Orientation Groundspeed Altitude Reporting Facility
EDT Latitude Longitude Course Direction KTS MPH feet Rate Location/Type
01:00PM 39.9167 -104.6833 90° East 185 213 6,600  Level Denver TRACON
01:01PM 39.9167 -104.6167 90° East 238 274 8,800 1,680 Climbing Denver TRACON
01:02PM 39.7966 -104.1860 101° East  Level FlightAware Approximate
01:02PM 39.8667 -104.5333 128° Southeast 276 318 10,000  Level Denver TRACON
01:03PM 39.7689 -104.0280 105° East  Level FlightAware Approximate
01:03PM 39.8406 -104.4669 117° Southeast 314 361 10,000  Level Denver Center
01:04PM 39.7564 -103.8673 99° East  Level FlightAware Approximate
01:04PM 39.8081 -104.3500 110° East 348 400 10,500  Level Denver Center
01:05PM 39.7333 -103.7094 90° East  Level FlightAware Approximate
01:05PM 39.7947 -104.2136 97° East 356 410 12,800  Level Denver Center
01:06PM 39.7794 -104.0756 98° East 384 442 15,300 1,980 Climbing Denver Center
01:07PM 39.7647 -103.9339 98° East 393 452 17,000 1,680 Climbing Denver Center
01:08PM 39.7444 -103.7700 99° East 425 489 19,200 1,620 Climbing Denver Center
01:09PM 39.7294 -103.5881 96° East 429 494 21,100 1,980 Climbing Denver Center
01:10PM 39.7142 -103.3911 96° East 463 533 23,800 2,040 Climbing Denver Center
01:11PM 39.7014 -103.2214 96° East 468 539 25,400 1,440 Climbing Denver Center
01:13PM 39.6872 -103.0475 96° East 477 549 27,100 1,500 Climbing Denver Center
01:14PM 39.6650 -102.8083 97° East 496 571 28,800 1,740 Climbing Denver Center
01:15PM 39.6336 -102.6272 103° East 483 556 30,800 1,740 Climbing Denver Center
01:16PM 39.5953 -102.4703 108° East 475 547 32,400 1,020 Climbing Denver Center
01:17PM 39.5631 -102.3142 105° East 475 547 33,000 240 Climbing Denver Center
01:18PM 39.5239 -102.1289 105° East 478 550 33,000  Level Denver Center
01:19PM 39.4897 -101.9692 105° East 481 554 33,000  Level Denver Center
01:20PM 39.4489 -101.7833 106° East 483 556 33,000  Level Denver Center
01:21PM 39.4133 -101.6244 106° East 482 555 33,000  Level Denver Center
01:22PM 39.3728 -101.4392 106° East 481 554 33,000  Level Denver Center
01:23PM 39.3353 -101.2808 107° East 481 554 33,000  Level Denver Center
01:24PM 39.2864 -101.0697 107° East 482 555 33,000  Level Denver Center
01:25PM 39.2500 -100.9139 107° East 479 551 33,000  Level Denver Center
01:26PM 39.2056 -100.7294 107° East 480 552 33,000  Level Denver Center
01:27PM 39.1686 -100.5753 107° East 475 547 33,000  Level Denver Center
01:28PM 39.1308 -100.4203 107° East 474 545 33,000  Level Denver Center
01:29PM 39.0861 -100.2394 108° East 475 547 33,000  Level Denver Center
01:30PM 39.0489 -100.0850 107° East 475 547 33,000  Level Denver Center
01:31PM 39.0094 -99.9264 108° East 472 543 33,000  Level Denver Center
01:32PM 38.9650 -99.7436 107° East 477 549 33,000  Level Denver Center
01:33PM 38.9261 -99.5886 108° East 476 548 33,000  Level Denver Center
01:34PM 38.8781 -99.4083 109° East 476 548 33,000  Level Denver Center
01:35PM 38.8122 -99.2747 122° Southeast 461 531 33,000  Level Denver Center
01:36PM 38.7453 -99.1433 123° Southeast 460 529 33,000  Level Denver Center
01:37PM 38.6678 -98.9894 123° Southeast 461 531 33,000  Level Kansas City Center
01:38PM 38.5917 -98.8600 127° Southeast 456 525 33,000  Level Kansas City Center
01:40PM 38.5136 -98.7333 128° Southeast 453 521 33,000  Level Kansas City Center
01:41PM 38.4711 -98.5756 109° East 472 543 33,000  Level Kansas City Center
01:42PM 38.4336 -98.3753 103° East 482 555 33,000  Level Kansas City Center
01:43PM 38.4011 -98.2108 104° East 479 551 33,000  Level Kansas City Center
01:44PM 38.3689 -98.0444 104° East 479 551 33,000  Level Kansas City Center
01:45PM 38.3364 -97.8778 104° East 481 554 33,000  Level Kansas City Center
01:46PM 38.2842 -97.7239 113° Southeast 468 539 33,000  Level Kansas City Center
01:47PM 38.2303 -97.5708 114° Southeast 470 541 33,000  Level Kansas City Center
01:48PM 38.1764 -97.4189 114° Southeast 468 539 33,000  Level Kansas City Center
01:49PM 38.1217 -97.2672 115° Southeast 469 540 33,000  Level Kansas City Center
01:50PM 38.0678 -97.1153 114° Southeast 470 541 33,000  Level Kansas City Center
01:51PM 38.0019 -96.9350 115° Southeast 468 539 33,000  Level Kansas City Center
01:52PM 37.9533 -96.7825 112° Southeast 467 537 33,000  Level Kansas City Center
01:53PM 37.9047 -96.6297 112° Southeast 467 537 33,000  Level Kansas City Center
01:54PM 37.8692 -96.4725 106° East 464 534 33,000  Level Kansas City Center
01:55PM 37.8397 -96.3097 103° East 471 542 33,000  Level Kansas City Center
01:56PM 37.8117 -96.1475 102° East 473 544 33,000  Level Kansas City Center
01:57PM 37.7806 -95.9475 101° East 473 544 33,000  Level Kansas City Center
01:58PM 37.7564 -95.7806 100° East 479 551 33,000  Level Kansas City Center
01:59PM 37.7300 -95.6139 101° East 481 554 33,000  Level Kansas City Center
02:00PM 37.7042 -95.4483 101° East 481 554 33,000  Level Kansas City Center
02:01PM 37.6786 -95.2814 101° East 481 554 33,000  Level Kansas City Center
02:02PM 37.6519 -95.1136 101° East 484 557 33,000  Level Kansas City Center
02:03PM 37.6419 -94.9428 94° East 491 565 33,000  Level Kansas City Center
02:04PM 37.6592 -94.7372 84° East 492 566 33,000  Level Kansas City Center
02:05PM 37.6733 -94.5647 84° East 492 566 33,000  Level Kansas City Center
02:06PM 37.6881 -94.3875 84° East 493 567 33,000 420 Level Kansas City Center
02:07PM 37.7025 -94.2150 84° East 494 568 33,900 960 Climbing Kansas City Center
02:08PM 37.7167 -94.0436 84° East 492 566 35,000 480 Climbing Kansas City Center
02:10PM 37.7311 -93.8733 84° East 489 563 35,000  Level Kansas City Center
02:11PM 37.7442 -93.7019 84° East 489 563 35,000  Level Kansas City Center
02:12PM 37.7575 -93.5300 84° East 491 565 35,000  Level Kansas City Center
02:13PM 37.7739 -93.3233 84° East 492 566 35,000  Level Kansas City Center
02:14PM 37.7864 -93.1536 85° East 488 562 35,000  Level Kansas City Center
02:15PM 37.7989 -92.9853 85° East 483 556 35,000  Level Kansas City Center
02:16PM 37.8111 -92.8214 85° East 473 544 35,000  Level Kansas City Center
02:17PM 37.8231 -92.6556 85° East 465 535 35,000  Level Kansas City Center
02:18PM 37.8353 -92.4917 85° East 468 539 35,000  Level Kansas City Center
02:19PM 37.8450 -92.3306 86° East 466 536 35,000  Level Kansas City Center
02:20PM 37.8569 -92.1314 86° East 474 545 35,000  Level Kansas City Center
02:21PM 37.8675 -91.9797 85° East 471 542 35,000  Level Kansas City Center
02:22PM 37.8778 -91.8161 85° East 469 540 35,000  Level Kansas City Center
02:23PM 37.8922 -91.6208 85° East 466 536 35,000  Level Kansas City Center
02:24PM 37.9019 -91.4561 86° East 469 540 35,000  Level Kansas City Center
02:25PM 37.9103 -91.2914 86° East 468 539 35,000  Level Kansas City Center
02:26PM 37.9192 -91.1264 86° East 469 540 35,000  Level Kansas City Center
02:27PM 37.9300 -90.9531 85° East 470 541 35,000  Level Kansas City Center
02:28PM 37.9383 -90.7869 86° East 474 545 35,000  Level Kansas City Center
02:29PM 37.9464 -90.6197 86° East 478 550 35,000  Level Kansas City Center
02:30PM 37.9558 -90.4536 86° East 477 549 35,000  Level Kansas City Center
02:31PM 37.9667 -90.2550 86° East 482 555 35,000  Level Kansas City Center
02:32PM 37.9742 -90.0700 87° East 487 560 35,000  Level Kansas City Center
02:33PM 37.9822 -89.8992 87° East 488 562 35,000  Level Kansas City Center
02:34PM 37.9908 -89.7167 87° East 485 558 35,000  Level Kansas City Center
02:35PM 37.9992 -89.5458 86° East 487 560 35,000  Level Kansas City Center
02:36PM 38.0067 -89.3608 87° East 489 563 35,000  Level Kansas City Center
02:37PM 38.0133 -89.1903 87° East 487 560 35,000  Level Kansas City Center
02:38PM 38.0200 -89.0214 87° East 490 564 35,000  Level Kansas City Center
02:39PM 38.0253 -88.8497 88° East 490 564 35,000  Level Kansas City Center
02:40PM 38.0328 -88.6794 87° East 493 567 35,000  Level Kansas City Center
02:42PM 38.0425 -88.4711 87° East 491 565 35,000  Level Kansas City Center
02:43PM 38.0472 -88.2944 88° East 497 572 35,000  Level Kansas City Center
02:44PM 38.0517 -88.1200 88° East 496 571 35,000  Level Kansas City Center
02:45PM 38.0567 -87.9436 88° East 498 573 35,000  Level Kansas City Center
02:46PM 38.0625 -87.7683 88° East 498 573 35,000  Level Kansas City Center
02:46PM 38.0636 -87.7336 88° East 497 572 35,000  Level Indianapolis Center
02:47PM 38.0694 -87.5247 88° East 495 570 35,000  Level Indianapolis Center
02:48PM 38.0739 -87.3503 88° East 496 571 35,000  Level Indianapolis Center
02:49PM 38.0775 -87.1778 88° East 496 571 35,000  Level Indianapolis Center
02:50PM 38.0819 -87.0047 88° East 498 573 35,000  Level Indianapolis Center
02:51PM 38.0850 -86.8319 89° East 497 572 35,000  Level Indianapolis Center
02:52PM 38.0889 -86.6236 89° East 496 571 35,000 60 Level Indianapolis Center
02:53PM 38.0922 -86.4503 89° East 494 568 35,200 960 Climbing Indianapolis Center
02:54PM 38.0947 -86.2822 89° East 478 550 37,000 840 Climbing Indianapolis Center
02:55PM 38.0994 -86.1231 88° East 455 524 37,000  Level Indianapolis Center
02:56PM 38.1297 -85.9575 77° East 479 551 37,000  Level Indianapolis Center
02:57PM 38.1464 -85.7881 83° East 483 556 37,000  Level Indianapolis Center
02:58PM 38.1592 -85.6183 84° East 483 556 37,000  Level Indianapolis Center
02:59PM 38.1700 -85.4492 85° East 482 555 37,000  Level Indianapolis Center
03:00PM 38.1794 -85.2478 87° East 478 550 37,000  Level Indianapolis Center
03:01PM 38.1917 -85.0706 85° East 484 557 37,000  Level Indianapolis Center
03:02PM 38.2019 -84.8997 86° East 488 562 37,000  Level Indianapolis Center
03:03PM 38.2131 -84.7267 85° East 490 564 37,000  Level Indianapolis Center
03:04PM 38.2228 -84.5536 86° East 492 566 37,000  Level Indianapolis Center
03:05PM 38.2325 -84.3778 86° East 497 572 37,000  Level Indianapolis Center
03:07PM 38.2431 -84.1747 86° East 495 570 37,000  Level Indianapolis Center
03:08PM 38.2519 -84.0019 86° East 491 565 37,000  Level Indianapolis Center
03:09PM 38.2614 -83.8272 86° East 494 568 37,000  Level Indianapolis Center
03:10PM 38.2703 -83.6539 86° East 492 566 37,000  Level Indianapolis Center
03:11PM 38.2789 -83.4794 86° East 491 565 37,000  Level Indianapolis Center
03:12PM 38.2883 -83.3064 86° East 489 563 37,000  Level Indianapolis Center
03:13PM 38.2961 -83.1050 87° East 488 562 37,000  Level Indianapolis Center
03:14PM 38.3042 -82.9344 87° East 484 557 37,000  Level Indianapolis Center
03:15PM 38.3111 -82.7642 87° East 482 555 37,000  Level Indianapolis Center
03:16PM 38.3186 -82.5919 87° East 486 559 37,000  Level Indianapolis Center
03:17PM 38.3253 -82.4061 87° East 485 558 37,000  Level Indianapolis Center
03:18PM 38.3333 -82.2347 87° East 487 560 37,000  Level Indianapolis Center
03:19PM 38.3403 -82.0633 87° East 486 559 37,000  Level Indianapolis Center
03:20PM 38.3461 -81.8900 87° East 490 564 37,000  Level Indianapolis Center
03:21PM 38.3494 -81.7172 89° East 493 567 37,000  Level Indianapolis Center
03:22PM 38.3419 -81.5089 93° East 496 571 37,000  Level Indianapolis Center
03:23PM 38.3350 -81.3353 93° East 497 572 37,000  Level Indianapolis Center
03:24PM 38.3286 -81.1650 93° East 488 562 37,000  Level Indianapolis Center
03:25PM 38.3219 -81.0544 94° East 513 590 37,000 -1,260 Level Washington Center
03:26PM 38.3172 -80.8822 92° East 499 574 34,900 -1,980 Descending Washington Center
03:27PM 38.3103 -80.7097 93° East 499 574 33,100 -960 Descending Washington Center
03:28PM 38.3047 -80.5397 92° East 494 568 33,000 -60 Descending Washington Center
03:29PM 38.3208 -80.3531 84° East 482 555 33,000 -480 Level Washington Center
03:30PM 38.3522 -80.1881 76° East 476 548 32,100 -1,020 Descending Washington Center
03:31PM 38.3878 -80.0181 75° East 482 555 31,000 -1,200 Descending Washington Center
03:32PM 38.4250 -79.8561 74° East 482 555 29,700 -1,260 Descending Washington Center
03:33PM 38.4589 -79.7228 72° East 464 534 28,500 -1,260 Descending Washington Center
03:34PM 38.4911 -79.5706 75° East 447 514 27,200 -2,100 Descending Washington Center
03:35PM 38.5250 -79.4264 73° East 433 498 24,400 -2,280 Descending Washington Center
03:36PM 38.5500 -79.2897 77° East 410 472 22,700 -1,740 Descending Washington Center
03:37PM 38.5714 -79.1342 80° East 404 465 21,000 -1,620 Descending Washington Center
03:38PM 38.5894 -79.0181 79° East 383 441 19,500 -1,800 Descending Washington Center
03:39PM 38.6164 -78.8733 77° East 378 435 17,400 -1,860 Descending Washington Center
03:40PM 38.6400 -78.7653 74° East 364 419 15,800 -1,860 Descending Washington Center
03:41PM 38.6706 -78.6364 73° East 344 396 13,700 -2,220 Descending Washington Center
03:42PM 38.6917 -78.5389 74° East 318 366 11,400 -1,380 Descending Washington Center
03:43PM 38.7197 -78.4200 73° East 313 360 11,000 -540 Descending Washington Center
03:44PM 38.7633 -78.3314 58° Northeast 297 342 10,400 -900 Descending Washington Center
03:45PM 38.8028 -78.2475 59° Northeast 296 341 9,200 -720 Descending Washington Center
03:46PM 38.8383 -78.1422 67° East 289 333 9,000 -300 Descending Washington Center
03:47PM 38.8697 -78.0472 67° East 294 338 8,600 -900 Descending Washington Center
03:48PM 38.9006 -77.9522 67° East 294 338 7,200 -1,260 Descending Washington Center
03:49PM 38.9336 -77.8600 65° Northeast 289 333 6,100 -600 Descending Washington Center
03:50PM 38.9647 -77.7647 67° East 289 333 6,100  Level Washington Center
03:51PM 38.9539 -77.6631 98° East 273 314 6,100 -60 Level Washington Center
03:52PM 38.8833 -77.5833 139° Southeast 276 318 6,000 -180 Descending Potomac TRACON
03:53PM 38.8167 -77.5667 169° South 233 268 5,800 -900 Descending Potomac TRACON
03:54PM 38.7667 -77.5667 180° South 232 267 4,300 -1,200 Descending Potomac TRACON
03:55PM 38.7833 -77.5000 72° East 226 260 3,500 -840 Descending Potomac TRACON